sensor_id;sensor_type;location;lat;lon;timestamp;temperature;humidity
6110;DHT22;3085;49.444;11.054;2022-09-03T00:00:12;15.50;99.90
6110;DHT22;3085;49.444;11.054;2022-09-03T00:02:42;16.10;99.90
6110;DHT22;3085;49.444;11.054;2022-09-03T00:05:18;17.20;99.90
6110;DHT22;3085;49.444;11.054;2022-09-03T00:07:53;17.20;99.90
6110;DHT22;3085;49.444;11.054;2022-09-03T00:10:26;17.20;99.90
6110;DHT22;3085;49.444;11.054;2022-09-03T00:12:59;17.20;99.90
6110;DHT22;3085;49.444;11.054;2022-09-03T00:15:28;19.30;99.90
6110;DHT22;3085;49.444;11.054;2022-09-03T00:18:02;17.20;99.90
6110;DHT22;3085;49.444;11.054;2022-09-03T00:20:32;17.50;99.90
6110;DHT22;3085;49.444;11.054;2022-09-03T00:23:03;17.00;99.90
6110;DHT22;3085;49.444;11.054;2022-09-03T00:25:34;17.10;99.90
6110;DHT22;3085;49.444;11.054;2022-09-03T00:28:10;19.10;99.90
6110;DHT22;3085;49.444;11.054;2022-09-03T00:30:40;17.10;99.90
6110;DHT22;3085;49.444;11.054;2022-09-03T00:33:11;17.00;99.90
6110;DHT22;3085;49.444;11.054;2022-09-03T00:35:43;17.00;99.90
6110;DHT22;3085;49.444;11.054;2022-09-03T00:38:12;17.70;99.90
6110;DHT22;3085;49.444;11.054;2022-09-03T00:40:59;17.00;99.90
6110;DHT22;3085;49.444;11.054;2022-09-03T00:43:51;17.00;99.90
6110;DHT22;3085;49.444;11.054;2022-09-03T00:46:28;16.80;99.90
6110;DHT22;3085;49.444;11.054;2022-09-03T00:52:00;16.70;99.90
6110;DHT22;3085;49.444;11.054;2022-09-03T00:54:35;16.70;99.90
6110;DHT22;3085;49.444;11.054;2022-09-03T00:57:22;16.70;99.90
6110;DHT22;3085;49.444;11.054;2022-09-03T01:00:03;16.70;99.90
6110;DHT22;3085;49.444;11.054;2022-09-03T01:02:44;16.70;99.90
6110;DHT22;3085;49.444;11.054;2022-09-03T01:05:23;17.80;99.90
6110;DHT22;3085;49.444;11.054;2022-09-03T01:08:01;16.60;99.90
6110;DHT22;3085;49.444;11.054;2022-09-03T01:10:35;16.60;99.90
6110;DHT22;3085;49.444;11.054;2022-09-03T01:13:12;16.50;99.90
6110;DHT22;3085;49.444;11.054;2022-09-03T01:15:46;16.50;99.90
6110;DHT22;3085;49.444;11.054;2022-09-03T01:18:23;16.70;99.90
6110;DHT22;3085;49.444;11.054;2022-09-03T01:21:03;16.50;99.90
6110;DHT22;3085;49.444;11.054;2022-09-03T01:26:44;16.40;99.90
6110;DHT22;3085;49.444;11.054;2022-09-03T01:29:21;16.40;99.90
6110;DHT22;3085;49.444;11.054;2022-09-03T01:32:04;16.40;99.90
6110;DHT22;3085;49.444;11.054;2022-09-03T01:34:44;16.40;99.90
6110;DHT22;3085;49.444;11.054;2022-09-03T01:37:24;16.40;99.90
6110;DHT22;3085;49.444;11.054;2022-09-03T01:40:02;16.40;99.90
6110;DHT22;3085;49.444;11.054;2022-09-03T01:42:40;16.40;99.90
6110;DHT22;3085;49.444;11.054;2022-09-03T01:45:38;16.40;99.90
6110;DHT22;3085;49.444;11.054;2022-09-03T01:48:31;16.30;99.90
6110;DHT22;3085;49.444;11.054;2022-09-03T01:51:06;16.30;99.90
6110;DHT22;3085;49.444;11.054;2022-09-03T01:53:51;16.20;99.90
6110;DHT22;3085;49.444;11.054;2022-09-03T01:56:32;16.30;99.90
6110;DHT22;3085;49.444;11.054;2022-09-03T01:59:04;16.20;99.90
6110;DHT22;3085;49.444;11.054;2022-09-03T02:01:36;16.10;99.90
6110;DHT22;3085;49.444;11.054;2022-09-03T02:04:14;16.10;99.90
6110;DHT22;3085;49.444;11.054;2022-09-03T02:06:42;16.00;99.90
6110;DHT22;3085;49.444;11.054;2022-09-03T02:09:12;15.90;99.90
6110;DHT22;3085;49.444;11.054;2022-09-03T02:11:40;15.90;99.90
6110;DHT22;3085;49.444;11.054;2022-09-03T02:14:07;15.80;99.90
6110;DHT22;3085;49.444;11.054;2022-09-03T02:16:36;15.90;99.90
6110;DHT22;3085;49.444;11.054;2022-09-03T02:19:06;15.90;99.90
6110;DHT22;3085;49.444;11.054;2022-09-03T02:21:38;15.90;99.90
6110;DHT22;3085;49.444;11.054;2022-09-03T02:24:07;15.90;99.90
6110;DHT22;3085;49.444;11.054;2022-09-03T02:26:34;15.80;99.90
6110;DHT22;3085;49.444;11.054;2022-09-03T02:29:02;15.80;99.90
6110;DHT22;3085;49.444;11.054;2022-09-03T02:31:29;15.90;99.90
6110;DHT22;3085;49.444;11.054;2022-09-03T02:33:58;15.80;99.90
6110;DHT22;3085;49.444;11.054;2022-09-03T02:36:28;15.80;99.90
6110;DHT22;3085;49.444;11.054;2022-09-03T02:38:57;15.80;99.90
6110;DHT22;3085;49.444;11.054;2022-09-03T02:41:25;15.70;99.90
6110;DHT22;3085;49.444;11.054;2022-09-03T02:43:55;15.70;99.90
6110;DHT22;3085;49.444;11.054;2022-09-03T02:46:28;15.60;99.90
6110;DHT22;3085;49.444;11.054;2022-09-03T02:48:59;15.70;99.90
6110;DHT22;3085;49.444;11.054;2022-09-03T02:51:26;15.60;99.90
6110;DHT22;3085;49.444;11.054;2022-09-03T02:53:57;15.60;99.90
6110;DHT22;3085;49.444;11.054;2022-09-03T02:56:24;15.50;99.90
6110;DHT22;3085;49.444;11.054;2022-09-03T02:58:52;15.50;99.90
6110;DHT22;3085;49.444;11.054;2022-09-03T03:01:19;15.50;99.90
6110;DHT22;3085;49.444;11.054;2022-09-03T03:03:46;15.40;99.90
6110;DHT22;3085;49.444;11.054;2022-09-03T03:06:14;15.30;99.90
6110;DHT22;3085;49.444;11.054;2022-09-03T03:08:44;15.40;99.90
6110;DHT22;3085;49.444;11.054;2022-09-03T03:11:11;15.40;99.90
6110;DHT22;3085;49.444;11.054;2022-09-03T03:13:39;15.40;99.90
6110;DHT22;3085;49.444;11.054;2022-09-03T03:16:06;15.30;99.90
6110;DHT22;3085;49.444;11.054;2022-09-03T03:18:33;15.30;99.90
6110;DHT22;3085;49.444;11.054;2022-09-03T03:21:03;15.30;99.90
6110;DHT22;3085;49.444;11.054;2022-09-03T03:23:32;15.30;99.90
6110;DHT22;3085;49.444;11.054;2022-09-03T03:26:00;15.40;99.90
6110;DHT22;3085;49.444;11.054;2022-09-03T03:28:27;15.40;99.90
6110;DHT22;3085;49.444;11.054;2022-09-03T03:30:56;15.40;99.90
6110;DHT22;3085;49.444;11.054;2022-09-03T03:33:23;15.40;99.90
6110;DHT22;3085;49.444;11.054;2022-09-03T03:35:50;14.30;99.90
6110;DHT22;3085;49.444;11.054;2022-09-03T03:38:17;15.40;99.90
6110;DHT22;3085;49.444;11.054;2022-09-03T03:40:46;15.30;99.90
6110;DHT22;3085;49.444;11.054;2022-09-03T03:43:13;15.30;99.90
6110;DHT22;3085;49.444;11.054;2022-09-03T03:45:39;15.30;99.90
6110;DHT22;3085;49.444;11.054;2022-09-03T03:48:06;15.30;99.90
6110;DHT22;3085;49.444;11.054;2022-09-03T03:50:33;15.30;99.90
6110;DHT22;3085;49.444;11.054;2022-09-03T03:53:00;15.20;99.90
6110;DHT22;3085;49.444;11.054;2022-09-03T03:55:27;15.20;99.90
6110;DHT22;3085;49.444;11.054;2022-09-03T03:57:57;15.20;99.90
6110;DHT22;3085;49.444;11.054;2022-09-03T04:00:24;15.20;99.90
6110;DHT22;3085;49.444;11.054;2022-09-03T04:02:51;15.20;99.90
6110;DHT22;3085;49.444;11.054;2022-09-03T04:05:18;15.20;99.90
6110;DHT22;3085;49.444;11.054;2022-09-03T04:07:44;15.20;99.90
6110;DHT22;3085;49.444;11.054;2022-09-03T04:10:11;15.20;99.90
6110;DHT22;3085;49.444;11.054;2022-09-03T04:12:39;15.20;99.90
6110;DHT22;3085;49.444;11.054;2022-09-03T04:15:08;15.10;99.90
6110;DHT22;3085;49.444;11.054;2022-09-03T04:17:35;15.00;99.90
6110;DHT22;3085;49.444;11.054;2022-09-03T04:20:03;15.00;99.90
6110;DHT22;3085;49.444;11.054;2022-09-03T04:22:30;15.00;99.90
6110;DHT22;3085;49.444;11.054;2022-09-03T04:24:56;15.00;99.90
6110;DHT22;3085;49.444;11.054;2022-09-03T04:27:23;15.00;99.90
6110;DHT22;3085;49.444;11.054;2022-09-03T04:29:50;15.00;99.90
6110;DHT22;3085;49.444;11.054;2022-09-03T04:32:18;15.00;99.90
6110;DHT22;3085;49.444;11.054;2022-09-03T04:35:03;15.00;99.90
6110;DHT22;3085;49.444;11.054;2022-09-03T04:37:31;15.00;99.90
6110;DHT22;3085;49.444;11.054;2022-09-03T04:39:58;15.10;99.90
6110;DHT22;3085;49.444;11.054;2022-09-03T04:42:25;15.00;99.90
6110;DHT22;3085;49.444;11.054;2022-09-03T04:44:53;15.00;99.90
6110;DHT22;3085;49.444;11.054;2022-09-03T04:47:21;15.00;99.90
6110;DHT22;3085;49.444;11.054;2022-09-03T04:49:48;15.00;99.90
6110;DHT22;3085;49.444;11.054;2022-09-03T04:52:14;15.10;99.90
6110;DHT22;3085;49.444;11.054;2022-09-03T04:54:41;15.00;99.90
6110;DHT22;3085;49.444;11.054;2022-09-03T04:57:08;15.00;99.90
6110;DHT22;3085;49.444;11.054;2022-09-03T04:59:35;15.00;99.90
6110;DHT22;3085;49.444;11.054;2022-09-03T05:02:01;15.00;99.90
6110;DHT22;3085;49.444;11.054;2022-09-03T05:04:29;15.00;99.90
6110;DHT22;3085;49.444;11.054;2022-09-03T05:06:56;15.00;99.90
6110;DHT22;3085;49.444;11.054;2022-09-03T05:09:23;15.00;99.90
6110;DHT22;3085;49.444;11.054;2022-09-03T05:11:50;15.00;99.90
6110;DHT22;3085;49.444;11.054;2022-09-03T05:14:17;15.00;99.90
6110;DHT22;3085;49.444;11.054;2022-09-03T05:16:44;15.00;99.90
6110;DHT22;3085;49.444;11.054;2022-09-03T05:19:10;15.10;99.90
6110;DHT22;3085;49.444;11.054;2022-09-03T05:21:39;15.00;99.90
6110;DHT22;3085;49.444;11.054;2022-09-03T05:24:07;14.90;99.90
6110;DHT22;3085;49.444;11.054;2022-09-03T05:26:38;14.90;99.90
6110;DHT22;3085;49.444;11.054;2022-09-03T05:29:06;14.90;99.90
6110;DHT22;3085;49.444;11.054;2022-09-03T05:31:34;14.90;99.90
6110;DHT22;3085;49.444;11.054;2022-09-03T05:34:03;15.00;99.90
6110;DHT22;3085;49.444;11.054;2022-09-03T05:36:33;15.10;99.90
6110;DHT22;3085;49.444;11.054;2022-09-03T05:39:02;15.10;99.90
6110;DHT22;3085;49.444;11.054;2022-09-03T05:41:29;15.10;99.90
6110;DHT22;3085;49.444;11.054;2022-09-03T05:43:57;15.10;99.90
6110;DHT22;3085;49.444;11.054;2022-09-03T05:46:29;15.10;99.90
6110;DHT22;3085;49.444;11.054;2022-09-03T05:48:57;15.20;99.90
6110;DHT22;3085;49.444;11.054;2022-09-03T05:51:25;15.20;99.90
6110;DHT22;3085;49.444;11.054;2022-09-03T05:53:51;15.20;99.90
6110;DHT22;3085;49.444;11.054;2022-09-03T05:56:23;15.20;99.90
6110;DHT22;3085;49.444;11.054;2022-09-03T05:58:53;15.30;99.90
6110;DHT22;3085;49.444;11.054;2022-09-03T06:01:24;15.30;99.90
6110;DHT22;3085;49.444;11.054;2022-09-03T06:03:54;15.40;99.90
6110;DHT22;3085;49.444;11.054;2022-09-03T06:06:24;15.50;99.90
6110;DHT22;3085;49.444;11.054;2022-09-03T06:08:51;15.40;99.90
6110;DHT22;3085;49.444;11.054;2022-09-03T06:11:21;15.50;99.90
6110;DHT22;3085;49.444;11.054;2022-09-03T06:13:48;15.50;99.90
6110;DHT22;3085;49.444;11.054;2022-09-03T06:16:15;15.60;99.90
6110;DHT22;3085;49.444;11.054;2022-09-03T06:18:42;15.70;99.90
6110;DHT22;3085;49.444;11.054;2022-09-03T06:21:08;15.70;99.90
6110;DHT22;3085;49.444;11.054;2022-09-03T06:23:35;15.70;99.90
6110;DHT22;3085;49.444;11.054;2022-09-03T06:26:04;15.80;99.90
6110;DHT22;3085;49.444;11.054;2022-09-03T06:28:34;15.90;99.90
6110;DHT22;3085;49.444;11.054;2022-09-03T06:31:03;16.30;99.90
6110;DHT22;3085;49.444;11.054;2022-09-03T06:33:32;16.00;99.90
6110;DHT22;3085;49.444;11.054;2022-09-03T06:36:00;16.00;99.90
6110;DHT22;3085;49.444;11.054;2022-09-03T06:38:29;16.00;99.90
6110;DHT22;3085;49.444;11.054;2022-09-03T06:40:58;16.00;99.90
6110;DHT22;3085;49.444;11.054;2022-09-03T06:43:27;16.00;99.90
6110;DHT22;3085;49.444;11.054;2022-09-03T06:45:57;16.10;99.90
6110;DHT22;3085;49.444;11.054;2022-09-03T06:48:25;16.10;99.90
6110;DHT22;3085;49.444;11.054;2022-09-03T06:50:56;16.30;99.90
6110;DHT22;3085;49.444;11.054;2022-09-03T06:53:24;16.30;99.90
6110;DHT22;3085;49.444;11.054;2022-09-03T06:55:52;16.50;99.90
6110;DHT22;3085;49.444;11.054;2022-09-03T06:58:19;16.50;99.90
6110;DHT22;3085;49.444;11.054;2022-09-03T07:00:46;16.60;99.90
6110;DHT22;3085;49.444;11.054;2022-09-03T07:03:15;16.70;99.90
6110;DHT22;3085;49.444;11.054;2022-09-03T07:05:45;16.80;99.90
6110;DHT22;3085;49.444;11.054;2022-09-03T07:08:12;16.70;99.90
6110;DHT22;3085;49.444;11.054;2022-09-03T07:10:38;16.70;99.90
6110;DHT22;3085;49.444;11.054;2022-09-03T07:13:06;16.80;99.90
6110;DHT22;3085;49.444;11.054;2022-09-03T07:15:33;16.80;99.90
6110;DHT22;3085;49.444;11.054;2022-09-03T07:18:00;16.90;99.90
6110;DHT22;3085;49.444;11.054;2022-09-03T07:20:28;17.00;99.90
6110;DHT22;3085;49.444;11.054;2022-09-03T07:22:55;17.20;99.90
6110;DHT22;3085;49.444;11.054;2022-09-03T07:25:22;17.10;99.90
6110;DHT22;3085;49.444;11.054;2022-09-03T07:27:50;17.80;99.90
6110;DHT22;3085;49.444;11.054;2022-09-03T07:30:17;17.40;99.90
6110;DHT22;3085;49.444;11.054;2022-09-03T07:32:45;17.40;99.90
6110;DHT22;3085;49.444;11.054;2022-09-03T07:35:12;17.50;99.90
6110;DHT22;3085;49.444;11.054;2022-09-03T07:37:41;17.60;99.90
6110;DHT22;3085;49.444;11.054;2022-09-03T07:40:09;17.70;99.90
6110;DHT22;3085;49.444;11.054;2022-09-03T07:42:36;17.60;99.90
6110;DHT22;3085;49.444;11.054;2022-09-03T07:45:06;17.70;99.90
6110;DHT22;3085;49.444;11.054;2022-09-03T07:47:35;17.80;99.90
6110;DHT22;3085;49.444;11.054;2022-09-03T07:50:03;17.70;99.90
6110;DHT22;3085;49.444;11.054;2022-09-03T07:52:33;17.70;99.90
6110;DHT22;3085;49.444;11.054;2022-09-03T07:55:01;17.80;99.90
6110;DHT22;3085;49.444;11.054;2022-09-03T07:57:29;17.90;99.90
6110;DHT22;3085;49.444;11.054;2022-09-03T07:59:56;18.00;99.90
6110;DHT22;3085;49.444;11.054;2022-09-03T08:02:23;17.90;99.90
6110;DHT22;3085;49.444;11.054;2022-09-03T08:04:50;18.10;99.90
6110;DHT22;3085;49.444;11.054;2022-09-03T08:07:17;18.20;99.90
6110;DHT22;3085;49.444;11.054;2022-09-03T08:09:43;18.30;99.90
6110;DHT22;3085;49.444;11.054;2022-09-03T08:12:12;18.50;99.90
6110;DHT22;3085;49.444;11.054;2022-09-03T08:14:38;18.60;99.90
6110;DHT22;3085;49.444;11.054;2022-09-03T08:17:06;18.90;99.90
6110;DHT22;3085;49.444;11.054;2022-09-03T08:19:32;18.90;99.90
6110;DHT22;3085;49.444;11.054;2022-09-03T08:21:59;19.00;99.90
6110;DHT22;3085;49.444;11.054;2022-09-03T08:24:28;19.00;99.90
6110;DHT22;3085;49.444;11.054;2022-09-03T08:26:56;19.10;99.90
6110;DHT22;3085;49.444;11.054;2022-09-03T08:29:24;19.00;99.90
6110;DHT22;3085;49.444;11.054;2022-09-03T08:31:51;19.10;99.90
6110;DHT22;3085;49.444;11.054;2022-09-03T08:34:18;19.20;99.90
6110;DHT22;3085;49.444;11.054;2022-09-03T08:36:46;19.30;99.90
6110;DHT22;3085;49.444;11.054;2022-09-03T08:39:13;19.30;99.90
6110;DHT22;3085;49.444;11.054;2022-09-03T08:41:53;19.30;99.90
6110;DHT22;3085;49.444;11.054;2022-09-03T08:44:28;19.20;99.90
6110;DHT22;3085;49.444;11.054;2022-09-03T08:47:01;19.20;99.90
6110;DHT22;3085;49.444;11.054;2022-09-03T08:49:37;19.10;99.90
6110;DHT22;3085;49.444;11.054;2022-09-03T08:52:19;19.10;99.90
6110;DHT22;3085;49.444;11.054;2022-09-03T08:54:48;19.10;99.90
6110;DHT22;3085;49.444;11.054;2022-09-03T08:57:18;19.10;99.90
6110;DHT22;3085;49.444;11.054;2022-09-03T08:59:49;19.20;99.90
6110;DHT22;3085;49.444;11.054;2022-09-03T09:02:25;19.20;99.90
6110;DHT22;3085;49.444;11.054;2022-09-03T09:04:59;19.20;99.90
6110;DHT22;3085;49.444;11.054;2022-09-03T09:07:33;19.30;99.90
6110;DHT22;3085;49.444;11.054;2022-09-03T09:10:07;19.30;99.90
6110;DHT22;3085;49.444;11.054;2022-09-03T09:12:43;19.40;99.90
6110;DHT22;3085;49.444;11.054;2022-09-03T09:15:22;19.50;99.90
6110;DHT22;3085;49.444;11.054;2022-09-03T09:18:08;19.60;99.90
6110;DHT22;3085;49.444;11.054;2022-09-03T09:20:41;19.60;99.90
6110;DHT22;3085;49.444;11.054;2022-09-03T09:23:13;19.60;99.90
6110;DHT22;3085;49.444;11.054;2022-09-03T09:25:46;19.60;99.90
6110;DHT22;3085;49.444;11.054;2022-09-03T09:28:17;19.70;99.90
6110;DHT22;3085;49.444;11.054;2022-09-03T09:30:46;19.80;99.90
6110;DHT22;3085;49.444;11.054;2022-09-03T09:33:14;19.90;99.90
6110;DHT22;3085;49.444;11.054;2022-09-03T09:35:41;20.00;99.90
6110;DHT22;3085;49.444;11.054;2022-09-03T09:38:08;20.10;99.90
6110;DHT22;3085;49.444;11.054;2022-09-03T09:40:36;20.20;99.90
6110;DHT22;3085;49.444;11.054;2022-09-03T09:43:08;20.30;99.90
6110;DHT22;3085;49.444;11.054;2022-09-03T09:45:37;20.40;99.90
6110;DHT22;3085;49.444;11.054;2022-09-03T09:48:08;20.50;99.90
6110;DHT22;3085;49.444;11.054;2022-09-03T09:50:36;20.70;99.90
6110;DHT22;3085;49.444;11.054;2022-09-03T09:53:05;20.70;99.90
6110;DHT22;3085;49.444;11.054;2022-09-03T09:55:51;20.80;99.90
6110;DHT22;3085;49.444;11.054;2022-09-03T09:58:20;20.90;99.90
6110;DHT22;3085;49.444;11.054;2022-09-03T10:01:00;20.90;99.90
6110;DHT22;3085;49.444;11.054;2022-09-03T10:03:31;20.90;99.90
6110;DHT22;3085;49.444;11.054;2022-09-03T10:06:05;20.90;99.90
6110;DHT22;3085;49.444;11.054;2022-09-03T10:08:46;20.90;99.90
6110;DHT22;3085;49.444;11.054;2022-09-03T10:11:13;20.80;99.90
6110;DHT22;3085;49.444;11.054;2022-09-03T10:13:42;20.90;99.90
6110;DHT22;3085;49.444;11.054;2022-09-03T10:16:20;21.00;99.90
6110;DHT22;3085;49.444;11.054;2022-09-03T10:18:56;21.00;99.90
6110;DHT22;3085;49.444;11.054;2022-09-03T10:21:29;21.10;99.90
6110;DHT22;3085;49.444;11.054;2022-09-03T10:24:01;21.00;99.90
6110;DHT22;3085;49.444;11.054;2022-09-03T10:26:28;21.10;99.90
6110;DHT22;3085;49.444;11.054;2022-09-03T10:28:57;21.10;99.90
6110;DHT22;3085;49.444;11.054;2022-09-03T10:31:39;21.10;99.90
6110;DHT22;3085;49.444;11.054;2022-09-03T10:34:17;21.30;99.90
6110;DHT22;3085;49.444;11.054;2022-09-03T10:36:53;21.40;99.90
6110;DHT22;3085;49.444;11.054;2022-09-03T10:39:39;21.60;99.90
6110;DHT22;3085;49.444;11.054;2022-09-03T10:42:22;21.60;99.90
6110;DHT22;3085;49.444;11.054;2022-09-03T10:44:59;21.70;99.90
6110;DHT22;3085;49.444;11.054;2022-09-03T10:47:56;21.80;99.90
6110;DHT22;3085;49.444;11.054;2022-09-03T10:50:32;21.90;99.90
6110;DHT22;3085;49.444;11.054;2022-09-03T10:53:09;22.10;99.90
6110;DHT22;3085;49.444;11.054;2022-09-03T10:55:44;22.10;99.90
6110;DHT22;3085;49.444;11.054;2022-09-03T10:58:36;22.10;99.90
6110;DHT22;3085;49.444;11.054;2022-09-03T11:01:13;22.00;99.90
6110;DHT22;3085;49.444;11.054;2022-09-03T11:03:45;21.90;99.90
6110;DHT22;3085;49.444;11.054;2022-09-03T11:06:19;21.90;99.90
6110;DHT22;3085;49.444;11.054;2022-09-03T11:08:53;22.00;99.90
6110;DHT22;3085;49.444;11.054;2022-09-03T11:11:25;22.10;99.90
6110;DHT22;3085;49.444;11.054;2022-09-03T11:13:55;22.20;99.90
6110;DHT22;3085;49.444;11.054;2022-09-03T11:16:27;22.30;99.90
6110;DHT22;3085;49.444;11.054;2022-09-03T11:19:01;22.20;99.90
6110;DHT22;3085;49.444;11.054;2022-09-03T11:21:32;22.20;99.90
6110;DHT22;3085;49.444;11.054;2022-09-03T11:24:06;22.20;99.90
6110;DHT22;3085;49.444;11.054;2022-09-03T11:26:36;22.20;99.90
6110;DHT22;3085;49.444;11.054;2022-09-03T11:29:08;22.30;99.90
6110;DHT22;3085;49.444;11.054;2022-09-03T11:31:47;22.30;99.90
6110;DHT22;3085;49.444;11.054;2022-09-03T11:34:27;22.30;99.90
6110;DHT22;3085;49.444;11.054;2022-09-03T11:37:06;22.50;99.90
6110;DHT22;3085;49.444;11.054;2022-09-03T11:39:35;22.50;99.90
6110;DHT22;3085;49.444;11.054;2022-09-03T11:42:09;22.40;99.90
6110;DHT22;3085;49.444;11.054;2022-09-03T11:44:38;22.50;99.90
6110;DHT22;3085;49.444;11.054;2022-09-03T11:47:14;22.70;99.90
6110;DHT22;3085;49.444;11.054;2022-09-03T11:49:46;22.80;99.90
6110;DHT22;3085;49.444;11.054;2022-09-03T11:52:25;22.80;99.90
6110;DHT22;3085;49.444;11.054;2022-09-03T11:54:52;22.80;99.90
6110;DHT22;3085;49.444;11.054;2022-09-03T11:57:24;22.80;99.90
6110;DHT22;3085;49.444;11.054;2022-09-03T11:59:52;22.90;99.90
6110;DHT22;3085;49.444;11.054;2022-09-03T12:02:30;23.00;99.90
6110;DHT22;3085;49.444;11.054;2022-09-03T12:05:13;23.00;99.90
6110;DHT22;3085;49.444;11.054;2022-09-03T12:08:03;23.00;99.90
6110;DHT22;3085;49.444;11.054;2022-09-03T12:10:40;23.10;99.90
6110;DHT22;3085;49.444;11.054;2022-09-03T12:13:24;23.10;99.90
6110;DHT22;3085;49.444;11.054;2022-09-03T12:16:18;23.10;99.90
6110;DHT22;3085;49.444;11.054;2022-09-03T12:18:48;23.10;99.90
6110;DHT22;3085;49.444;11.054;2022-09-03T12:21:17;23.00;99.90
6110;DHT22;3085;49.444;11.054;2022-09-03T12:23:47;23.20;99.90
6110;DHT22;3085;49.444;11.054;2022-09-03T12:26:16;23.30;99.90
6110;DHT22;3085;49.444;11.054;2022-09-03T12:28:47;23.40;99.90
6110;DHT22;3085;49.444;11.054;2022-09-03T12:31:16;23.50;99.90
6110;DHT22;3085;49.444;11.054;2022-09-03T12:33:49;23.50;99.90
6110;DHT22;3085;49.444;11.054;2022-09-03T12:36:18;23.60;99.90
6110;DHT22;3085;49.444;11.054;2022-09-03T12:38:47;23.60;99.90
6110;DHT22;3085;49.444;11.054;2022-09-03T12:41:23;23.60;99.90
6110;DHT22;3085;49.444;11.054;2022-09-03T12:43:52;23.70;99.90
6110;DHT22;3085;49.444;11.054;2022-09-03T12:46:23;23.80;99.90
6110;DHT22;3085;49.444;11.054;2022-09-03T12:48:55;23.90;99.90
6110;DHT22;3085;49.444;11.054;2022-09-03T12:51:22;23.80;99.90
6110;DHT22;3085;49.444;11.054;2022-09-03T12:53:51;23.90;99.90
6110;DHT22;3085;49.444;11.054;2022-09-03T12:56:20;23.80;99.90
6110;DHT22;3085;49.444;11.054;2022-09-03T12:58:51;23.80;99.90
6110;DHT22;3085;49.444;11.054;2022-09-03T13:01:23;23.70;99.90
6110;DHT22;3085;49.444;11.054;2022-09-03T13:03:54;23.60;99.90
6110;DHT22;3085;49.444;11.054;2022-09-03T13:06:25;23.40;99.90
6110;DHT22;3085;49.444;11.054;2022-09-03T13:08:57;23.30;99.90
6110;DHT22;3085;49.444;11.054;2022-09-03T13:11:25;23.20;99.90
6110;DHT22;3085;49.444;11.054;2022-09-03T13:13:55;23.30;99.90
6110;DHT22;3085;49.444;11.054;2022-09-03T13:16:51;23.30;99.90
6110;DHT22;3085;49.444;11.054;2022-09-03T13:19:26;23.20;99.90
6110;DHT22;3085;49.444;11.054;2022-09-03T13:22:01;23.20;99.90
6110;DHT22;3085;49.444;11.054;2022-09-03T13:24:49;23.20;99.90
6110;DHT22;3085;49.444;11.054;2022-09-03T13:27:24;23.30;99.90
6110;DHT22;3085;49.444;11.054;2022-09-03T13:30:03;23.20;99.90
6110;DHT22;3085;49.444;11.054;2022-09-03T13:35:27;23.20;99.90
6110;DHT22;3085;49.444;11.054;2022-09-03T13:37:57;23.00;99.90
6110;DHT22;3085;49.444;11.054;2022-09-03T13:40:35;22.90;99.90
6110;DHT22;3085;49.444;11.054;2022-09-03T13:43:10;22.70;99.90
6110;DHT22;3085;49.444;11.054;2022-09-03T13:45:45;22.90;99.90
6110;DHT22;3085;49.444;11.054;2022-09-03T13:48:19;22.90;99.90
6110;DHT22;3085;49.444;11.054;2022-09-03T13:51:12;23.00;99.90
6110;DHT22;3085;49.444;11.054;2022-09-03T13:53:47;23.00;99.90
6110;DHT22;3085;49.444;11.054;2022-09-03T13:56:25;23.10;99.90
6110;DHT22;3085;49.444;11.054;2022-09-03T13:58:59;23.10;99.90
6110;DHT22;3085;49.444;11.054;2022-09-03T14:01:50;23.10;99.90
6110;DHT22;3085;49.444;11.054;2022-09-03T14:04:24;23.10;99.90
6110;DHT22;3085;49.444;11.054;2022-09-03T14:06:57;23.10;99.90
6110;DHT22;3085;49.444;11.054;2022-09-03T14:09:32;23.10;99.90
6110;DHT22;3085;49.444;11.054;2022-09-03T14:12:08;23.20;99.90
6110;DHT22;3085;49.444;11.054;2022-09-03T14:14:43;23.20;99.90
6110;DHT22;3085;49.444;11.054;2022-09-03T14:17:22;23.10;99.90
6110;DHT22;3085;49.444;11.054;2022-09-03T14:19:55;23.10;99.90
6110;DHT22;3085;49.444;11.054;2022-09-03T14:22:25;23.10;99.90
6110;DHT22;3085;49.444;11.054;2022-09-03T14:24:56;23.10;99.90
6110;DHT22;3085;49.444;11.054;2022-09-03T14:27:28;23.00;99.90
6110;DHT22;3085;49.444;11.054;2022-09-03T14:29:59;23.00;99.90
6110;DHT22;3085;49.444;11.054;2022-09-03T14:32:29;22.90;99.90
6110;DHT22;3085;49.444;11.054;2022-09-03T14:41:02;22.80;99.90
6110;DHT22;3085;49.444;11.054;2022-09-03T14:43:52;22.80;99.90
6110;DHT22;3085;49.444;11.054;2022-09-03T14:46:35;22.70;99.90
6110;DHT22;3085;49.444;11.054;2022-09-03T14:49:25;22.60;99.90
6110;DHT22;3085;49.444;11.054;2022-09-03T14:52:09;22.60;99.90
6110;DHT22;3085;49.444;11.054;2022-09-03T14:54:56;22.60;99.90
6110;DHT22;3085;49.444;11.054;2022-09-03T14:57:47;22.60;99.90
6110;DHT22;3085;49.444;11.054;2022-09-03T15:00:21;22.60;99.90
6110;DHT22;3085;49.444;11.054;2022-09-03T15:03:26;22.60;99.90
6110;DHT22;3085;49.444;11.054;2022-09-03T15:06:09;22.50;99.90
6110;DHT22;3085;49.444;11.054;2022-09-03T15:08:47;22.30;99.90
6110;DHT22;3085;49.444;11.054;2022-09-03T15:11:19;22.40;99.90
6110;DHT22;3085;49.444;11.054;2022-09-03T15:13:51;22.30;99.90
6110;DHT22;3085;49.444;11.054;2022-09-03T15:16:38;22.40;99.90
6110;DHT22;3085;49.444;11.054;2022-09-03T15:19:15;22.30;99.90
6110;DHT22;3085;49.444;11.054;2022-09-03T15:21:59;22.30;99.90
6110;DHT22;3085;49.444;11.054;2022-09-03T15:24:39;22.20;99.90
6110;DHT22;3085;49.444;11.054;2022-09-03T15:27:29;22.20;99.90
6110;DHT22;3085;49.444;11.054;2022-09-03T15:30:00;22.20;99.90
6110;DHT22;3085;49.444;11.054;2022-09-03T15:32:46;22.10;99.90
6110;DHT22;3085;49.444;11.054;2022-09-03T15:35:26;22.20;99.90
6110;DHT22;3085;49.444;11.054;2022-09-03T15:38:00;22.10;99.90
6110;DHT22;3085;49.444;11.054;2022-09-03T15:40:30;22.00;99.90
6110;DHT22;3085;49.444;11.054;2022-09-03T15:43:04;22.00;99.90
6110;DHT22;3085;49.444;11.054;2022-09-03T15:45:38;22.00;99.90
6110;DHT22;3085;49.444;11.054;2022-09-03T15:48:16;21.90;99.90
6110;DHT22;3085;49.444;11.054;2022-09-03T15:50:52;22.00;99.90
6110;DHT22;3085;49.444;11.054;2022-09-03T15:53:28;21.90;99.90
6110;DHT22;3085;49.444;11.054;2022-09-03T15:56:10;21.90;99.90
6110;DHT22;3085;49.444;11.054;2022-09-03T15:58:44;21.80;99.90
6110;DHT22;3085;49.444;11.054;2022-09-03T16:01:28;21.80;99.90
6110;DHT22;3085;49.444;11.054;2022-09-03T16:04:06;21.80;99.90
6110;DHT22;3085;49.444;11.054;2022-09-03T16:06:55;21.70;99.90
6110;DHT22;3085;49.444;11.054;2022-09-03T16:09:35;21.60;99.90
6110;DHT22;3085;49.444;11.054;2022-09-03T16:12:13;21.60;99.90
6110;DHT22;3085;49.444;11.054;2022-09-03T16:14:46;21.60;99.90
6110;DHT22;3085;49.444;11.054;2022-09-03T16:17:24;21.50;99.90
6110;DHT22;3085;49.444;11.054;2022-09-03T16:19:56;21.40;99.90
6110;DHT22;3085;49.444;11.054;2022-09-03T16:22:26;21.10;99.90
6110;DHT22;3085;49.444;11.054;2022-09-03T16:24:59;21.00;99.90
6110;DHT22;3085;49.444;11.054;2022-09-03T16:27:29;20.80;99.90
6110;DHT22;3085;49.444;11.054;2022-09-03T16:30:00;20.60;99.90
6110;DHT22;3085;49.444;11.054;2022-09-03T16:32:41;20.40;99.90